sensor_id;sensor_type;location;lat;lon;timestamp;P1;durP1;ratioP1;P2;durP2;ratioP2
14599;SDS011;7386;45.586;12.854;2023-07-20T00:00:37;12.15;;;4.35;;
14599;SDS011;7386;45.586;12.854;2023-07-20T00:03:09;11.70;;;4.80;;
14599;SDS011;7386;45.586;12.854;2023-07-20T00:05:43;11.63;;;4.00;;
14599;SDS011;7386;45.586;12.854;2023-07-20T00:08:13;13.27;;;5.22;;
14599;SDS011;7386;45.586;12.854;2023-07-20T00:10:42;9.60;;;4.15;;
14599;SDS011;7386;45.586;12.854;2023-07-20T00:13:10;12.43;;;4.18;;
14599;SDS011;7386;45.586;12.854;2023-07-20T00:15:39;11.30;;;4.68;;
14599;SDS011;7386;45.586;12.854;2023-07-20T00:18:08;11.90;;;4.47;;
14599;SDS011;7386;45.586;12.854;2023-07-20T00:20:36;9.48;;;4.10;;
14599;SDS011;7386;45.586;12.854;2023-07-20T00:23:05;9.52;;;4.30;;
14599;SDS011;7386;45.586;12.854;2023-07-20T00:25:35;10.57;;;4.45;;
14599;SDS011;7386;45.586;12.854;2023-07-20T00:28:04;8.65;;;4.57;;
14599;SDS011;7386;45.586;12.854;2023-07-20T00:30:32;7.40;;;4.20;;
14599;SDS011;7386;45.586;12.854;2023-07-20T00:33:01;7.30;;;4.38;;
14599;SDS011;7386;45.586;12.854;2023-07-20T00:35:29;9.55;;;4.38;;
14599;SDS011;7386;45.586;12.854;2023-07-20T00:37:58;8.35;;;4.80;;
14599;SDS011;7386;45.586;12.854;2023-07-20T00:40:27;10.57;;;5.05;;
14599;SDS011;7386;45.586;12.854;2023-07-20T00:42:56;11.40;;;4.85;;
14599;SDS011;7386;45.586;12.854;2023-07-20T00:45:25;8.82;;;4.80;;
14599;SDS011;7386;45.586;12.854;2023-07-20T00:47:54;9.45;;;4.85;;
14599;SDS011;7386;45.586;12.854;2023-07-20T00:50:22;9.63;;;4.88;;
14599;SDS011;7386;45.586;12.854;2023-07-20T00:52:51;8.70;;;4.95;;
14599;SDS011;7386;45.586;12.854;2023-07-20T00:55:20;7.68;;;4.70;;
14599;SDS011;7386;45.586;12.854;2023-07-20T00:57:49;9.43;;;4.72;;
14599;SDS011;7386;45.586;12.854;2023-07-20T01:00:19;8.77;;;5.07;;
14599;SDS011;7386;45.586;12.854;2023-07-20T01:02:48;10.80;;;5.75;;
14599;SDS011;7386;45.586;12.854;2023-07-20T01:05:16;7.82;;;5.00;;
14599;SDS011;7386;45.586;12.854;2023-07-20T01:07:46;10.98;;;5.32;;
14599;SDS011;7386;45.586;12.854;2023-07-20T01:10:20;8.32;;;5.45;;
14599;SDS011;7386;45.586;12.854;2023-07-20T01:12:53;12.00;;;5.43;;
14599;SDS011;7386;45.586;12.854;2023-07-20T01:15:24;9.27;;;5.95;;
14599;SDS011;7386;45.586;12.854;2023-07-20T01:17:53;11.23;;;5.85;;
14599;SDS011;7386;45.586;12.854;2023-07-20T01:20:21;12.68;;;6.10;;
14599;SDS011;7386;45.586;12.854;2023-07-20T01:23:00;10.43;;;5.88;;
14599;SDS011;7386;45.586;12.854;2023-07-20T01:25:34;9.75;;;6.50;;
14599;SDS011;7386;45.586;12.854;2023-07-20T01:33:31;10.38;;;6.70;;
14599;SDS011;7386;45.586;12.854;2023-07-20T01:36:00;11.48;;;6.50;;
14599;SDS011;7386;45.586;12.854;2023-07-20T01:38:29;9.68;;;6.07;;
14599;SDS011;7386;45.586;12.854;2023-07-20T01:40:58;11.85;;;5.93;;
14599;SDS011;7386;45.586;12.854;2023-07-20T01:43:26;10.68;;;5.50;;
14599;SDS011;7386;45.586;12.854;2023-07-20T01:45:55;7.85;;;5.82;;
14599;SDS011;7386;45.586;12.854;2023-07-20T01:48:24;10.20;;;5.88;;
14599;SDS011;7386;45.586;12.854;2023-07-20T01:50:54;9.93;;;5.75;;
14599;SDS011;7386;45.586;12.854;2023-07-20T01:53:22;8.88;;;5.72;;
14599;SDS011;7386;45.586;12.854;2023-07-20T01:55:52;8.40;;;5.88;;
14599;SDS011;7386;45.586;12.854;2023-07-20T01:58:21;7.95;;;6.10;;
14599;SDS011;7386;45.586;12.854;2023-07-20T02:00:49;8.10;;;5.70;;
14599;SDS011;7386;45.586;12.854;2023-07-20T02:03:18;10.40;;;5.72;;
14599;SDS011;7386;45.586;12.854;2023-07-20T02:05:48;10.55;;;6.20;;
14599;SDS011;7386;45.586;12.854;2023-07-20T02:08:18;9.55;;;5.68;;
14599;SDS011;7386;45.586;12.854;2023-07-20T02:10:46;7.80;;;5.82;;
14599;SDS011;7386;45.586;12.854;2023-07-20T02:13:15;10.57;;;5.45;;
14599;SDS011;7386;45.586;12.854;2023-07-20T02:15:53;11.77;;;5.63;;
14599;SDS011;7386;45.586;12.854;2023-07-20T02:18:21;9.25;;;5.93;;
14599;SDS011;7386;45.586;12.854;2023-07-20T02:20:52;7.45;;;5.60;;
14599;SDS011;7386;45.586;12.854;2023-07-20T02:23:20;10.20;;;5.70;;
14599;SDS011;7386;45.586;12.854;2023-07-20T02:25:49;8.05;;;5.68;;
14599;SDS011;7386;45.586;12.854;2023-07-20T02:28:17;10.45;;;5.90;;
14599;SDS011;7386;45.586;12.854;2023-07-20T02:30:46;7.68;;;5.30;;
14599;SDS011;7386;45.586;12.854;2023-07-20T02:33:17;11.48;;;5.80;;
14599;SDS011;7386;45.586;12.854;2023-07-20T02:35:46;13.00;;;5.70;;
14599;SDS011;7386;45.586;12.854;2023-07-20T02:38:15;8.02;;;5.53;;
14599;SDS011;7386;45.586;12.854;2023-07-20T02:40:43;8.45;;;5.28;;
14599;SDS011;7386;45.586;12.854;2023-07-20T02:43:12;8.13;;;5.30;;
14599;SDS011;7386;45.586;12.854;2023-07-20T02:45:40;7.63;;;5.32;;
14599;SDS011;7386;45.586;12.854;2023-07-20T02:48:09;9.63;;;5.20;;
14599;SDS011;7386;45.586;12.854;2023-07-20T02:50:39;6.95;;;5.10;;
14599;SDS011;7386;45.586;12.854;2023-07-20T02:53:07;9.00;;;4.88;;
14599;SDS011;7386;45.586;12.854;2023-07-20T02:55:36;8.98;;;5.80;;
14599;SDS011;7386;45.586;12.854;2023-07-20T02:58:04;8.30;;;5.38;;
14599;SDS011;7386;45.586;12.854;2023-07-20T03:00:33;9.20;;;5.35;;
14599;SDS011;7386;45.586;12.854;2023-07-20T03:03:01;7.53;;;5.10;;
14599;SDS011;7386;45.586;12.854;2023-07-20T03:05:30;7.05;;;5.25;;
14599;SDS011;7386;45.586;12.854;2023-07-20T03:08:00;8.18;;;5.53;;
14599;SDS011;7386;45.586;12.854;2023-07-20T03:10:29;9.15;;;4.82;;
14599;SDS011;7386;45.586;12.854;2023-07-20T03:12:57;8.68;;;5.60;;
14599;SDS011;7386;45.586;12.854;2023-07-20T03:15:25;8.55;;;5.75;;
14599;SDS011;7386;45.586;12.854;2023-07-20T03:17:55;9.88;;;5.43;;
14599;SDS011;7386;45.586;12.854;2023-07-20T03:20:25;7.90;;;5.55;;
14599;SDS011;7386;45.586;12.854;2023-07-20T03:22:53;6.53;;;5.03;;
14599;SDS011;7386;45.586;12.854;2023-07-20T03:25:23;8.27;;;5.60;;
14599;SDS011;7386;45.586;12.854;2023-07-20T03:27:54;6.95;;;5.05;;
14599;SDS011;7386;45.586;12.854;2023-07-20T03:30:22;8.32;;;5.47;;
14599;SDS011;7386;45.586;12.854;2023-07-20T03:32:52;8.88;;;5.18;;
14599;SDS011;7386;45.586;12.854;2023-07-20T03:35:20;7.30;;;5.28;;
14599;SDS011;7386;45.586;12.854;2023-07-20T03:37:49;11.35;;;6.25;;
14599;SDS011;7386;45.586;12.854;2023-07-20T03:40:18;8.88;;;5.28;;
14599;SDS011;7386;45.586;12.854;2023-07-20T03:42:48;7.55;;;5.50;;
14599;SDS011;7386;45.586;12.854;2023-07-20T03:45:16;9.27;;;6.60;;
14599;SDS011;7386;45.586;12.854;2023-07-20T03:47:45;8.70;;;5.80;;
14599;SDS011;7386;45.586;12.854;2023-07-20T03:50:14;8.50;;;5.50;;
14599;SDS011;7386;45.586;12.854;2023-07-20T03:52:43;7.63;;;5.45;;
14599;SDS011;7386;45.586;12.854;2023-07-20T03:55:11;8.75;;;5.53;;
14599;SDS011;7386;45.586;12.854;2023-07-20T03:57:40;8.32;;;5.32;;
14599;SDS011;7386;45.586;12.854;2023-07-20T04:00:11;7.35;;;5.57;;
14599;SDS011;7386;45.586;12.854;2023-07-20T04:02:41;7.95;;;5.43;;
14599;SDS011;7386;45.586;12.854;2023-07-20T04:05:09;9.02;;;5.82;;
14599;SDS011;7386;45.586;12.854;2023-07-20T04:07:38;7.28;;;5.45;;
14599;SDS011;7386;45.586;12.854;2023-07-20T04:10:07;8.63;;;5.50;;
14599;SDS011;7386;45.586;12.854;2023-07-20T04:12:35;9.60;;;5.53;;
14599;SDS011;7386;45.586;12.854;2023-07-20T04:15:04;6.68;;;4.70;;
14599;SDS011;7386;45.586;12.854;2023-07-20T04:17:34;10.40;;;5.53;;
14599;SDS011;7386;45.586;12.854;2023-07-20T04:20:03;8.18;;;5.32;;
14599;SDS011;7386;45.586;12.854;2023-07-20T04:22:32;7.65;;;5.22;;
14599;SDS011;7386;45.586;12.854;2023-07-20T04:25:01;8.25;;;4.95;;
14599;SDS011;7386;45.586;12.854;2023-07-20T04:27:29;8.32;;;4.97;;
14599;SDS011;7386;45.586;12.854;2023-07-20T04:29:58;7.20;;;5.32;;
14599;SDS011;7386;45.586;12.854;2023-07-20T04:32:26;7.07;;;5.30;;
14599;SDS011;7386;45.586;12.854;2023-07-20T04:34:56;8.18;;;4.80;;
14599;SDS011;7386;45.586;12.854;2023-07-20T04:37:25;8.00;;;5.10;;
14599;SDS011;7386;45.586;12.854;2023-07-20T04:39:53;7.30;;;5.22;;
14599;SDS011;7386;45.586;12.854;2023-07-20T04:42:22;7.90;;;5.13;;
14599;SDS011;7386;45.586;12.854;2023-07-20T04:44:50;6.05;;;4.85;;
14599;SDS011;7386;45.586;12.854;2023-07-20T04:47:19;6.07;;;4.70;;
14599;SDS011;7386;45.586;12.854;2023-07-20T04:49:47;8.77;;;5.13;;
14599;SDS011;7386;45.586;12.854;2023-07-20T04:52:17;8.45;;;5.03;;
14599;SDS011;7386;45.586;12.854;2023-07-20T04:54:55;7.25;;;5.28;;
14599;SDS011;7386;45.586;12.854;2023-07-20T04:57:24;7.68;;;5.30;;
14599;SDS011;7386;45.586;12.854;2023-07-20T04:59:52;6.70;;;4.55;;
14599;SDS011;7386;45.586;12.854;2023-07-20T05:02:20;7.22;;;4.57;;
14599;SDS011;7386;45.586;12.854;2023-07-20T05:04:49;6.82;;;4.75;;
14599;SDS011;7386;45.586;12.854;2023-07-20T05:07:19;6.90;;;4.68;;
14599;SDS011;7386;45.586;12.854;2023-07-20T05:09:47;6.03;;;4.45;;
14599;SDS011;7386;45.586;12.854;2023-07-20T05:12:16;7.53;;;4.63;;
14599;SDS011;7386;45.586;12.854;2023-07-20T05:14:46;6.10;;;4.30;;
14599;SDS011;7386;45.586;12.854;2023-07-20T05:17:15;6.20;;;4.13;;
14599;SDS011;7386;45.586;12.854;2023-07-20T05:19:43;7.95;;;4.75;;
14599;SDS011;7386;45.586;12.854;2023-07-20T05:22:12;5.38;;;4.00;;
14599;SDS011;7386;45.586;12.854;2023-07-20T05:24:42;6.13;;;3.92;;
14599;SDS011;7386;45.586;12.854;2023-07-20T05:27:11;9.70;;;4.47;;
14599;SDS011;7386;45.586;12.854;2023-07-20T05:29:43;6.07;;;4.13;;
14599;SDS011;7386;45.586;12.854;2023-07-20T05:32:12;7.60;;;4.30;;
14599;SDS011;7386;45.586;12.854;2023-07-20T05:34:40;6.38;;;4.40;;
14599;SDS011;7386;45.586;12.854;2023-07-20T05:37:09;9.68;;;4.25;;
14599;SDS011;7386;45.586;12.854;2023-07-20T05:39:40;7.93;;;4.32;;
14599;SDS011;7386;45.586;12.854;2023-07-20T05:42:10;5.85;;;4.00;;
14599;SDS011;7386;45.586;12.854;2023-07-20T05:44:39;8.25;;;4.65;;
14599;SDS011;7386;45.586;12.854;2023-07-20T05:47:07;7.30;;;4.13;;
14599;SDS011;7386;45.586;12.854;2023-07-20T05:49:36;5.95;;;4.00;;
14599;SDS011;7386;45.586;12.854;2023-07-20T05:52:05;5.38;;;3.97;;
14599;SDS011;7386;45.586;12.854;2023-07-20T05:54:33;6.10;;;4.22;;
14599;SDS011;7386;45.586;12.854;2023-07-20T05:57:02;7.70;;;4.32;;
14599;SDS011;7386;45.586;12.854;2023-07-20T05:59:32;6.63;;;3.90;;
14599;SDS011;7386;45.586;12.854;2023-07-20T06:02:00;7.60;;;4.00;;
14599;SDS011;7386;45.586;12.854;2023-07-20T06:04:29;7.85;;;3.80;;
14599;SDS011;7386;45.586;12.854;2023-07-20T06:06:58;8.32;;;4.32;;
14599;SDS011;7386;45.586;12.854;2023-07-20T06:09:26;6.40;;;4.18;;
14599;SDS011;7386;45.586;12.854;2023-07-20T06:11:55;6.00;;;4.18;;
14599;SDS011;7386;45.586;12.854;2023-07-20T06:14:24;7.35;;;4.40;;
14599;SDS011;7386;45.586;12.854;2023-07-20T06:16:54;8.20;;;4.63;;
14599;SDS011;7386;45.586;12.854;2023-07-20T06:19:22;5.80;;;4.00;;
14599;SDS011;7386;45.586;12.854;2023-07-20T06:21:51;5.50;;;3.97;;
14599;SDS011;7386;45.586;12.854;2023-07-20T06:24:19;7.40;;;4.10;;
14599;SDS011;7386;45.586;12.854;2023-07-20T06:26:48;6.80;;;4.10;;
14599;SDS011;7386;45.586;12.854;2023-07-20T06:29:17;6.75;;;4.05;;
14599;SDS011;7386;45.586;12.854;2023-07-20T06:31:47;5.38;;;4.00;;
14599;SDS011;7386;45.586;12.854;2023-07-20T06:34:17;7.22;;;4.03;;
14599;SDS011;7386;45.586;12.854;2023-07-20T06:36:49;8.00;;;4.22;;
14599;SDS011;7386;45.586;12.854;2023-07-20T06:39:18;5.82;;;4.28;;
14599;SDS011;7386;45.586;12.854;2023-07-20T06:41:49;9.32;;;5.38;;
14599;SDS011;7386;45.586;12.854;2023-07-20T06:44:21;9.50;;;6.50;;
14599;SDS011;7386;45.586;12.854;2023-07-20T06:46:49;9.63;;;6.93;;
14599;SDS011;7386;45.586;12.854;2023-07-20T06:49:25;7.75;;;6.80;;
14599;SDS011;7386;45.586;12.854;2023-07-20T06:51:54;9.25;;;6.55;;
14599;SDS011;7386;45.586;12.854;2023-07-20T06:54:23;7.72;;;6.45;;
14599;SDS011;7386;45.586;12.854;2023-07-20T06:56:51;8.02;;;6.70;;
14599;SDS011;7386;45.586;12.854;2023-07-20T06:59:22;7.20;;;5.80;;
14599;SDS011;7386;45.586;12.854;2023-07-20T07:01:51;9.65;;;6.57;;
14599;SDS011;7386;45.586;12.854;2023-07-20T07:04:20;8.00;;;6.40;;
14599;SDS011;7386;45.586;12.854;2023-07-20T07:06:50;7.90;;;6.47;;
14599;SDS011;7386;45.586;12.854;2023-07-20T07:09:18;7.50;;;5.45;;
14599;SDS011;7386;45.586;12.854;2023-07-20T07:11:47;7.20;;;4.60;;
14599;SDS011;7386;45.586;12.854;2023-07-20T07:14:15;5.78;;;3.97;;
14599;SDS011;7386;45.586;12.854;2023-07-20T07:16:44;5.47;;;3.53;;
14599;SDS011;7386;45.586;12.854;2023-07-20T07:19:13;4.68;;;3.20;;
14599;SDS011;7386;45.586;12.854;2023-07-20T07:21:41;6.30;;;3.65;;
14599;SDS011;7386;45.586;12.854;2023-07-20T07:24:11;4.50;;;3.22;;
14599;SDS011;7386;45.586;12.854;2023-07-20T07:26:45;4.80;;;2.97;;
14599;SDS011;7386;45.586;12.854;2023-07-20T07:29:14;6.10;;;3.20;;
14599;SDS011;7386;45.586;12.854;2023-07-20T07:31:43;4.65;;;3.28;;
14599;SDS011;7386;45.586;12.854;2023-07-20T07:34:12;4.07;;;2.95;;
14599;SDS011;7386;45.586;12.854;2023-07-20T07:36:40;5.65;;;3.13;;
14599;SDS011;7386;45.586;12.854;2023-07-20T07:39:09;6.65;;;3.20;;
14599;SDS011;7386;45.586;12.854;2023-07-20T07:41:41;5.18;;;2.90;;
14599;SDS011;7386;45.586;12.854;2023-07-20T07:44:10;3.00;;;2.60;;
14599;SDS011;7386;45.586;12.854;2023-07-20T07:46:38;5.07;;;2.80;;
14599;SDS011;7386;45.586;12.854;2023-07-20T07:49:08;7.18;;;2.58;;
14599;SDS011;7386;45.586;12.854;2023-07-20T07:51:36;5.57;;;2.80;;
14599;SDS011;7386;45.586;12.854;2023-07-20T07:54:05;3.42;;;2.67;;
14599;SDS011;7386;45.586;12.854;2023-07-20T07:56:33;5.38;;;2.95;;
14599;SDS011;7386;45.586;12.854;2023-07-20T07:59:03;5.10;;;3.08;;
14599;SDS011;7386;45.586;12.854;2023-07-20T08:01:32;3.53;;;2.60;;
14599;SDS011;7386;45.586;12.854;2023-07-20T08:04:00;5.63;;;3.08;;
14599;SDS011;7386;45.586;12.854;2023-07-20T08:06:30;4.63;;;2.90;;
14599;SDS011;7386;45.586;12.854;2023-07-20T08:08:58;4.32;;;2.67;;
14599;SDS011;7386;45.586;12.854;2023-07-20T08:11:28;7.03;;;3.20;;
14599;SDS011;7386;45.586;12.854;2023-07-20T08:13:59;5.07;;;3.10;;
14599;SDS011;7386;45.586;12.854;2023-07-20T08:16:30;3.67;;;2.75;;
14599;SDS011;7386;45.586;12.854;2023-07-20T08:18:59;6.93;;;3.10;;
14599;SDS011;7386;45.586;12.854;2023-07-20T08:21:28;6.25;;;3.05;;
14599;SDS011;7386;45.586;12.854;2023-07-20T08:23:57;5.25;;;2.95;;
14599;SDS011;7386;45.586;12.854;2023-07-20T08:26:25;5.55;;;3.00;;
14599;SDS011;7386;45.586;12.854;2023-07-20T08:28:54;5.88;;;3.28;;
14599;SDS011;7386;45.586;12.854;2023-07-20T08:31:22;5.20;;;3.10;;
14599;SDS011;7386;45.586;12.854;2023-07-20T08:33:52;6.00;;;3.38;;
14599;SDS011;7386;45.586;12.854;2023-07-20T08:36:23;5.53;;;3.50;;
14599;SDS011;7386;45.586;12.854;2023-07-20T08:38:53;5.68;;;3.47;;
14599;SDS011;7386;45.586;12.854;2023-07-20T08:41:21;6.22;;;3.28;;
14599;SDS011;7386;45.586;12.854;2023-07-20T08:43:50;6.63;;;3.38;;
14599;SDS011;7386;45.586;12.854;2023-07-20T08:46:19;7.25;;;2.92;;
14599;SDS011;7386;45.586;12.854;2023-07-20T08:48:48;5.55;;;3.35;;
14599;SDS011;7386;45.586;12.854;2023-07-20T08:51:18;5.45;;;3.45;;
14599;SDS011;7386;45.586;12.854;2023-07-20T08:53:48;9.52;;;3.40;;
14599;SDS011;7386;45.586;12.854;2023-07-20T08:56:18;5.60;;;3.47;;
14599;SDS011;7386;45.586;12.854;2023-07-20T08:58:48;4.57;;;3.20;;
14599;SDS011;7386;45.586;12.854;2023-07-20T09:01:17;6.38;;;3.58;;
14599;SDS011;7386;45.586;12.854;2023-07-20T09:03:46;6.13;;;3.53;;
14599;SDS011;7386;45.586;12.854;2023-07-20T09:06:15;7.13;;;3.50;;
14599;SDS011;7386;45.586;12.854;2023-07-20T09:08:45;5.45;;;3.22;;
14599;SDS011;7386;45.586;12.854;2023-07-20T09:11:13;4.95;;;3.30;;
14599;SDS011;7386;45.586;12.854;2023-07-20T09:13:42;5.57;;;3.22;;
14599;SDS011;7386;45.586;12.854;2023-07-20T09:16:13;6.90;;;3.55;;
14599;SDS011;7386;45.586;12.854;2023-07-20T09:18:42;5.47;;;2.90;;
14599;SDS011;7386;45.586;12.854;2023-07-20T09:21:10;7.72;;;3.63;;
14599;SDS011;7386;45.586;12.854;2023-07-20T09:23:39;6.85;;;3.10;;
14599;SDS011;7386;45.586;12.854;2023-07-20T09:26:12;3.45;;;2.63;;
14599;SDS011;7386;45.586;12.854;2023-07-20T09:28:42;11.32;;;3.25;;
14599;SDS011;7386;45.586;12.854;2023-07-20T09:31:16;3.55;;;2.88;;
14599;SDS011;7386;45.586;12.854;2023-07-20T09:33:45;5.25;;;3.00;;
14599;SDS011;7386;45.586;12.854;2023-07-20T09:36:16;3.70;;;2.88;;
14599;SDS011;7386;45.586;12.854;2023-07-20T09:39:05;6.53;;;3.15;;
14599;SDS011;7386;45.586;12.854;2023-07-20T09:41:41;5.03;;;3.05;;
14599;SDS011;7386;45.586;12.854;2023-07-20T09:44:13;6.80;;;3.15;;
14599;SDS011;7386;45.586;12.854;2023-07-20T09:46:45;6.97;;;2.95;;
14599;SDS011;7386;45.586;12.854;2023-07-20T09:49:17;7.80;;;2.95;;
14599;SDS011;7386;45.586;12.854;2023-07-20T09:51:48;3.90;;;3.03;;
14599;SDS011;7386;45.586;12.854;2023-07-20T09:54:17;5.55;;;3.13;;
14599;SDS011;7386;45.586;12.854;2023-07-20T09:56:47;4.38;;;3.30;;
14599;SDS011;7386;45.586;12.854;2023-07-20T09:59:16;5.97;;;3.55;;
14599;SDS011;7386;45.586;12.854;2023-07-20T10:01:45;6.05;;;3.28;;
14599;SDS011;7386;45.586;12.854;2023-07-20T10:04:14;4.10;;;3.25;;
14599;SDS011;7386;45.586;12.854;2023-07-20T10:06:44;7.43;;;3.35;;
14599;SDS011;7386;45.586;12.854;2023-07-20T10:09:15;6.82;;;3.10;;
14599;SDS011;7386;45.586;12.854;2023-07-20T10:11:49;6.68;;;3.20;;
14599;SDS011;7386;45.586;12.854;2023-07-20T10:14:38;5.28;;;3.17;;
14599;SDS011;7386;45.586;12.854;2023-07-20T10:17:09;6.45;;;2.78;;
14599;SDS011;7386;45.586;12.854;2023-07-20T10:19:40;4.60;;;2.95;;
14599;SDS011;7386;45.586;12.854;2023-07-20T10:22:18;5.57;;;3.28;;
14599;SDS011;7386;45.586;12.854;2023-07-20T10:24:47;5.78;;;3.38;;
14599;SDS011;7386;45.586;12.854;2023-07-20T10:27:18;6.05;;;3.25;;
14599;SDS011;7386;45.586;12.854;2023-07-20T10:29:47;4.65;;;2.90;;
14599;SDS011;7386;45.586;12.854;2023-07-20T10:32:16;5.22;;;3.10;;
14599;SDS011;7386;45.586;12.854;2023-07-20T10:34:49;7.25;;;3.30;;
14599;SDS011;7386;45.586;12.854;2023-07-20T10:42:50;8.13;;;3.13;;
14599;SDS011;7386;45.586;12.854;2023-07-20T10:45:18;6.70;;;3.10;;
14599;SDS011;7386;45.586;12.854;2023-07-20T10:47:47;5.68;;;3.15;;
14599;SDS011;7386;45.586;12.854;2023-07-20T10:50:16;4.88;;;2.70;;
14599;SDS011;7386;45.586;12.854;2023-07-20T10:53:03;5.05;;;2.85;;
14599;SDS011;7386;45.586;12.854;2023-07-20T10:55:32;5.35;;;2.70;;
14599;SDS011;7386;45.586;12.854;2023-07-20T10:58:10;3.88;;;2.53;;
14599;SDS011;7386;45.586;12.854;2023-07-20T11:00:54;4.20;;;2.80;;
14599;SDS011;7386;45.586;12.854;2023-07-20T11:03:27;4.65;;;3.10;;
14599;SDS011;7386;45.586;12.854;2023-07-20T11:08:44;3.78;;;3.00;;
14599;SDS011;7386;45.586;12.854;2023-07-20T11:11:22;3.80;;;2.67;;
14599;SDS011;7386;45.586;12.854;2023-07-20T11:13:56;4.97;;;3.00;;
14599;SDS011;7386;45.586;12.854;2023-07-20T11:16:33;5.05;;;2.63;;
14599;SDS011;7386;45.586;12.854;2023-07-20T11:19:02;4.63;;;2.90;;
14599;SDS011;7386;45.586;12.854;2023-07-20T11:21:35;5.13;;;2.53;;
14599;SDS011;7386;45.586;12.854;2023-07-20T11:24:21;6.32;;;2.85;;
14599;SDS011;7386;45.586;12.854;2023-07-20T11:26:50;4.35;;;3.08;;
14599;SDS011;7386;45.586;12.854;2023-07-20T11:29:20;5.03;;;2.92;;
14599;SDS011;7386;45.586;12.854;2023-07-20T11:31:58;6.88;;;3.00;;
14599;SDS011;7386;45.586;12.854;2023-07-20T11:34:27;5.90;;;3.05;;
14599;SDS011;7386;45.586;12.854;2023-07-20T11:36:55;4.40;;;2.72;;
14599;SDS011;7386;45.586;12.854;2023-07-20T11:39:27;4.53;;;2.97;;
14599;SDS011;7386;45.586;12.854;2023-07-20T11:41:56;6.20;;;3.40;;
14599;SDS011;7386;45.586;12.854;2023-07-20T11:44:27;6.25;;;3.20;;
14599;SDS011;7386;45.586;12.854;2023-07-20T11:46:59;5.65;;;2.90;;
14599;SDS011;7386;45.586;12.854;2023-07-20T11:49:30;6.30;;;3.30;;
14599;SDS011;7386;45.586;12.854;2023-07-20T11:52:00;3.90;;;2.88;;
14599;SDS011;7386;45.586;12.854;2023-07-20T11:54:29;7.55;;;3.03;;
14599;SDS011;7386;45.586;12.854;2023-07-20T11:57:00;5.68;;;2.95;;
14599;SDS011;7386;45.586;12.854;2023-07-20T11:59:30;2.95;;;2.45;;
14599;SDS011;7386;45.586;12.854;2023-07-20T12:01:58;4.70;;;3.08;;
14599;SDS011;7386;45.586;12.854;2023-07-20T12:04:30;5.90;;;2.88;;
14599;SDS011;7386;45.586;12.854;2023-07-20T12:06:59;6.10;;;3.00;;
14599;SDS011;7386;45.586;12.854;2023-07-20T12:09:28;4.55;;;2.80;;
14599;SDS011;7386;45.586;12.854;2023-07-20T12:12:15;4.95;;;2.80;;
14599;SDS011;7386;45.586;12.854;2023-07-20T12:14:45;5.57;;;3.05;;
14599;SDS011;7386;45.586;12.854;2023-07-20T12:17:14;4.35;;;3.05;;
14599;SDS011;7386;45.586;12.854;2023-07-20T12:19:43;2.75;;;2.30;;
14599;SDS011;7386;45.586;12.854;2023-07-20T12:22:11;4.45;;;2.90;;
14599;SDS011;7386;45.586;12.854;2023-07-20T12:24:40;5.32;;;3.10;;
14599;SDS011;7386;45.586;12.854;2023-07-20T12:27:08;4.35;;;2.92;;
14599;SDS011;7386;45.586;12.854;2023-07-20T12:29:46;5.63;;;2.80;;
14599;SDS011;7386;45.586;12.854;2023-07-20T12:32:14;6.93;;;2.80;;
14599;SDS011;7386;45.586;12.854;2023-07-20T12:34:43;6.35;;;3.30;;
14599;SDS011;7386;45.586;12.854;2023-07-20T12:37:11;3.97;;;2.38;;
14599;SDS011;7386;45.586;12.854;2023-07-20T12:39:40;5.05;;;3.00;;
14599;SDS011;7386;45.586;12.854;2023-07-20T12:42:13;7.43;;;3.50;;
14599;SDS011;7386;45.586;12.854;2023-07-20T12:44:43;3.75;;;2.50;;
14599;SDS011;7386;45.586;12.854;2023-07-20T12:47:13;5.45;;;3.30;;
14599;SDS011;7386;45.586;12.854;2023-07-20T12:49:42;4.18;;;3.03;;
14599;SDS011;7386;45.586;12.854;2023-07-20T12:52:11;4.22;;;2.60;;
14599;SDS011;7386;45.586;12.854;2023-07-20T12:54:40;4.50;;;2.75;;
14599;SDS011;7386;45.586;12.854;2023-07-20T12:57:09;4.72;;;2.92;;
14599;SDS011;7386;45.586;12.854;2023-07-20T12:59:38;5.43;;;3.05;;
14599;SDS011;7386;45.586;12.854;2023-07-20T13:02:07;6.45;;;3.28;;
14599;SDS011;7386;45.586;12.854;2023-07-20T13:04:37;6.43;;;3.30;;
14599;SDS011;7386;45.586;12.854;2023-07-20T13:07:08;6.15;;;3.78;;
14599;SDS011;7386;45.586;12.854;2023-07-20T13:09:40;5.00;;;3.25;;
14599;SDS011;7386;45.586;12.854;2023-07-20T13:12:08;6.35;;;3.20;;
14599;SDS011;7386;45.586;12.854;2023-07-20T13:14:37;5.35;;;3.08;;
14599;SDS011;7386;45.586;12.854;2023-07-20T13:17:05;6.93;;;2.92;;
14599;SDS011;7386;45.586;12.854;2023-07-20T13:19:34;9.02;;;3.20;;
14599;SDS011;7386;45.586;12.854;2023-07-20T13:22:05;4.43;;;2.95;;
14599;SDS011;7386;45.586;12.854;2023-07-20T13:24:33;4.00;;;2.70;;
14599;SDS011;7386;45.586;12.854;2023-07-20T13:27:02;3.65;;;2.88;;
14599;SDS011;7386;45.586;12.854;2023-07-20T13:29:31;4.65;;;3.05;;
14599;SDS011;7386;45.586;12.854;2023-07-20T13:32:00;6.18;;;3.30;;
14599;SDS011;7386;45.586;12.854;2023-07-20T13:34:29;7.45;;;3.83;;
14599;SDS011;7386;45.586;12.854;2023-07-20T13:36:58;5.43;;;3.42;;
14599;SDS011;7386;45.586;12.854;2023-07-20T13:39:28;6.97;;;3.53;;
14599;SDS011;7386;45.586;12.854;2023-07-20T13:41:56;5.45;;;3.60;;
14599;SDS011;7386;45.586;12.854;2023-07-20T13:44:25;7.93;;;4.20;;
14599;SDS011;7386;45.586;12.854;2023-07-20T13:46:56;6.80;;;3.90;;
14599;SDS011;7386;45.586;12.854;2023-07-20T13:49:44;3.78;;;2.90;;
14599;SDS011;7386;45.586;12.854;2023-07-20T13:52:13;7.35;;;3.45;;
14599;SDS011;7386;45.586;12.854;2023-07-20T13:54:46;7.72;;;3.90;;
14599;SDS011;7386;45.586;12.854;2023-07-20T13:57:19;6.38;;;3.20;;
14599;SDS011;7386;45.586;12.854;2023-07-20T13:59:48;6.50;;;2.70;;
14599;SDS011;7386;45.586;12.854;2023-07-20T14:02:17;12.00;;;3.70;;
14599;SDS011;7386;45.586;12.854;2023-07-20T14:04:49;8.07;;;3.50;;
14599;SDS011;7386;45.586;12.854;2023-07-20T14:07:37;4.97;;;3.28;;
14599;SDS011;7386;45.586;12.854;2023-07-20T14:10:08;4.68;;;3.13;;
14599;SDS011;7386;45.586;12.854;2023-07-20T14:12:39;6.10;;;3.20;;
14599;SDS011;7386;45.586;12.854;2023-07-20T14:15:09;5.68;;;2.80;;
14599;SDS011;7386;45.586;12.854;2023-07-20T14:17:38;6.30;;;3.50;;
14599;SDS011;7386;45.586;12.854;2023-07-20T14:20:07;7.38;;;3.30;;
14599;SDS011;7386;45.586;12.854;2023-07-20T14:22:38;4.35;;;2.92;;
14599;SDS011;7386;45.586;12.854;2023-07-20T14:25:09;6.60;;;3.40;;
14599;SDS011;7386;45.586;12.854;2023-07-20T14:27:38;5.40;;;3.70;;
14599;SDS011;7386;45.586;12.854;2023-07-20T14:30:06;4.90;;;3.30;;
14599;SDS011;7386;45.586;12.854;2023-07-20T14:32:36;4.18;;;3.00;;
14599;SDS011;7386;45.586;12.854;2023-07-20T14:35:05;5.55;;;3.28;;
14599;SDS011;7386;45.586;12.854;2023-07-20T14:37:36;5.80;;;3.30;;
14599;SDS011;7386;45.586;12.854;2023-07-20T14:40:05;5.72;;;3.60;;
14599;SDS011;7386;45.586;12.854;2023-07-20T14:42:36;5.25;;;3.17;;
14599;SDS011;7386;45.586;12.854;2023-07-20T14:45:05;5.43;;;3.55;;
14599;SDS011;7386;45.586;12.854;2023-07-20T14:47:34;5.60;;;3.60;;
14599;SDS011;7386;45.586;12.854;2023-07-20T14:50:04;6.32;;;3.60;;
14599;SDS011;7386;45.586;12.854;2023-07-20T14:52:32;5.28;;;3.35;;
14599;SDS011;7386;45.586;12.854;2023-07-20T14:55:01;6.10;;;3.30;;
14599;SDS011;7386;45.586;12.854;2023-07-20T14:57:29;6.38;;;3.47;;
14599;SDS011;7386;45.586;12.854;2023-07-20T14:59:59;5.72;;;3.47;;
14599;SDS011;7386;45.586;12.854;2023-07-20T15:02:29;5.65;;;3.30;;
14599;SDS011;7386;45.586;12.854;2023-07-20T15:04:58;9.07;;;3.80;;
14599;SDS011;7386;45.586;12.854;2023-07-20T15:07:29;6.03;;;4.22;;
14599;SDS011;7386;45.586;12.854;2023-07-20T15:09:57;7.95;;;4.20;;
14599;SDS011;7386;45.586;12.854;2023-07-20T15:12:26;5.32;;;3.85;;
14599;SDS011;7386;45.586;12.854;2023-07-20T15:15:03;5.00;;;3.70;;